Grand Canyon, AZ

10:30 AM MST on April 26, 2015 (GMT -0700)
KAZGRAND3 | | Change Station
CLOSE
Current Station
Personal Weather Station
Location: Grand Canyon, AZ
Elevation: 6991 ft
Nearby Weather Stations

Elev 6991 ft 36.05 °N, 112.12 °W | Updated 13 seconds ago

Partly Cloudy
Partly Cloudy
41.0 °F
Feels Like 37 °F
N
6.0
Wind Variable Wind from NW
Gusts 6.0 mph

Today
High -- | Low -- °F
--% Chance of Precip.
Yesterday
High -- | Low -- °F
Precip. -- in
5:41 AM 7:11 PM
First Quarter, 57% visible
Pressure 29.75 in
Visibility 10.0 miles
Clouds Scattered Clouds 1800 ft
Windchill 37 °F
Dew Point 32 °F
Humidity 71%
Rainfall 0.11 in
Snow Depth Not available.
UV 7 out of 12
Pollen 2.50 out of 12
Air Quality Not available.
Flu Activity Local Activity
METAR KGCN 261654Z 35010G19KT 10SM SCT018 06/01 A2985 RMK AO2 SLP075 T00610011

More Conditions Fewer Conditions

Pressure 29.75 in
Visibility 10.0 miles
Clouds Scattered Clouds 1800 ft
Windchill 37 °F
Dew Point 32 °F
Humidity 71%
Rainfall 0.11 in
Snow Depth Not available.
UV 7 out of 12
Pollen 2.50 out of 12
Air Quality Not available.
Flu Activity Local Activity
METAR KGCN 261654Z 35010G19KT 10SM SCT018 06/01 A2985 RMK AO2 SLP075 T00610011

More Conditions Fewer Conditions

The full scope of the disaster following a powerful 7.8-magnitude earthquake in Nepal may not come into view for days, but global charities are already sending emergency aid. Click to see how you can help.

10-Day Weather Forecast

Almanac

Astronomy

Apr. 26, 2015 Rise Set
Actual Time
Civil Twilight
Nautical Twilight
Astronomical Twilight
Moon
Length of Visible Light
Length of Day
Tomorrow will be .
, % of the Moon is Illuminated

Today's Extremes

State Highs State Lows

Community

WunderPhotos

Upload Photos

1,817,063 photos uploaded!

WunderBlogs® & News

Nearby

Air Quality

  Air Quality AQ Index Pollutant
Not available.

Snow Depth

Station Depth Elevation

Earthquake Activity

City Distance Mag. Time & Date
Minimum magnitude displayed is 2.5.

Coastal Water Temperatures

Place Temperature

Stations

Nearby Weather Stations

Station Location Temp. Windchill Dew Point Humidity Wind Precip. Elev Updated Type